sensor_id;sensor_type;location;lat;lon;timestamp;P1;durP1;ratioP1;P2;durP2;ratioP2
65156;SDS011;52745;49.794;18.258;2022-11-15T00:00:15;65.68;;;33.40;;
65156;SDS011;52745;49.794;18.258;2022-11-15T00:03:05;68.15;;;33.35;;
65156;SDS011;52745;49.794;18.258;2022-11-15T00:05:50;81.28;;;35.17;;
65156;SDS011;52745;49.794;18.258;2022-11-15T00:08:36;72.97;;;33.40;;
65156;SDS011;52745;49.794;18.258;2022-11-15T00:11:21;75.65;;;35.40;;
65156;SDS011;52745;49.794;18.258;2022-11-15T00:14:06;77.05;;;35.80;;
65156;SDS011;52745;49.794;18.258;2022-11-15T00:16:51;90.65;;;38.40;;
65156;SDS011;52745;49.794;18.258;2022-11-15T00:19:36;90.43;;;39.67;;
65156;SDS011;52745;49.794;18.258;2022-11-15T00:22:22;85.63;;;37.75;;
65156;SDS011;52745;49.794;18.258;2022-11-15T00:25:07;86.80;;;36.80;;
65156;SDS011;52745;49.794;18.258;2022-11-15T00:27:54;88.88;;;36.05;;
65156;SDS011;52745;49.794;18.258;2022-11-15T00:30:41;86.88;;;35.83;;
65156;SDS011;52745;49.794;18.258;2022-11-15T00:33:26;78.97;;;33.92;;
65156;SDS011;52745;49.794;18.258;2022-11-15T00:36:11;81.00;;;35.13;;
65156;SDS011;52745;49.794;18.258;2022-11-15T00:38:56;73.93;;;32.20;;
65156;SDS011;52745;49.794;18.258;2022-11-15T00:41:41;70.70;;;32.80;;
65156;SDS011;52745;49.794;18.258;2022-11-15T00:44:26;72.55;;;32.10;;
65156;SDS011;52745;49.794;18.258;2022-11-15T00:47:12;68.85;;;31.38;;
65156;SDS011;52745;49.794;18.258;2022-11-15T00:49:59;70.28;;;32.53;;
65156;SDS011;52745;49.794;18.258;2022-11-15T00:52:44;74.35;;;33.13;;
65156;SDS011;52745;49.794;18.258;2022-11-15T00:55:29;69.03;;;33.05;;
65156;SDS011;52745;49.794;18.258;2022-11-15T00:58:14;71.93;;;32.72;;
65156;SDS011;52745;49.794;18.258;2022-11-15T01:01:09;71.53;;;33.33;;
65156;SDS011;52745;49.794;18.258;2022-11-15T01:03:56;66.45;;;32.35;;
65156;SDS011;52745;49.794;18.258;2022-11-15T01:06:42;64.43;;;31.38;;
65156;SDS011;52745;49.794;18.258;2022-11-15T01:09:27;64.80;;;31.60;;
65156;SDS011;52745;49.794;18.258;2022-11-15T01:12:12;66.03;;;30.80;;
65156;SDS011;52745;49.794;18.258;2022-11-15T01:14:58;66.88;;;29.98;;
65156;SDS011;52745;49.794;18.258;2022-11-15T01:17:42;69.35;;;31.00;;
65156;SDS011;52745;49.794;18.258;2022-11-15T01:20:28;63.88;;;30.60;;
65156;SDS011;52745;49.794;18.258;2022-11-15T01:23:13;60.42;;;29.63;;
65156;SDS011;52745;49.794;18.258;2022-11-15T01:25:58;65.30;;;29.73;;
65156;SDS011;52745;49.794;18.258;2022-11-15T01:28:44;67.80;;;30.08;;
65156;SDS011;52745;49.794;18.258;2022-11-15T01:31:30;67.88;;;30.45;;
65156;SDS011;52745;49.794;18.258;2022-11-15T01:34:15;60.38;;;29.48;;
65156;SDS011;52745;49.794;18.258;2022-11-15T01:37:00;60.05;;;27.55;;
65156;SDS011;52745;49.794;18.258;2022-11-15T01:39:45;60.83;;;29.27;;
65156;SDS011;52745;49.794;18.258;2022-11-15T01:42:30;60.17;;;27.90;;
65156;SDS011;52745;49.794;18.258;2022-11-15T01:45:15;56.75;;;28.33;;
65156;SDS011;52745;49.794;18.258;2022-11-15T01:48:01;56.00;;;27.85;;
65156;SDS011;52745;49.794;18.258;2022-11-15T01:50:46;58.47;;;27.65;;
65156;SDS011;52745;49.794;18.258;2022-11-15T01:53:31;61.03;;;29.10;;
65156;SDS011;52745;49.794;18.258;2022-11-15T01:56:19;62.95;;;29.02;;
65156;SDS011;52745;49.794;18.258;2022-11-15T01:59:10;58.70;;;27.75;;
65156;SDS011;52745;49.794;18.258;2022-11-15T02:01:56;55.60;;;28.35;;
65156;SDS011;52745;49.794;18.258;2022-11-15T02:04:45;56.72;;;27.80;;
65156;SDS011;52745;49.794;18.258;2022-11-15T02:07:32;50.88;;;26.52;;
65156;SDS011;52745;49.794;18.258;2022-11-15T02:10:20;58.80;;;28.33;;
65156;SDS011;52745;49.794;18.258;2022-11-15T02:13:07;58.17;;;28.83;;
65156;SDS011;52745;49.794;18.258;2022-11-15T02:31:00;56.83;;;27.33;;
65156;SDS011;52745;49.794;18.258;2022-11-15T02:33:57;50.17;;;26.13;;
65156;SDS011;52745;49.794;18.258;2022-11-15T02:37:02;57.33;;;27.73;;
65156;SDS011;52745;49.794;18.258;2022-11-15T02:42:53;52.83;;;27.15;;
65156;SDS011;52745;49.794;18.258;2022-11-15T02:46:02;51.58;;;25.85;;
65156;SDS011;52745;49.794;18.258;2022-11-15T02:49:02;60.15;;;26.20;;
65156;SDS011;52745;49.794;18.258;2022-11-15T02:51:48;56.00;;;27.10;;
65156;SDS011;52745;49.794;18.258;2022-11-15T02:54:35;63.03;;;27.42;;
65156;SDS011;52745;49.794;18.258;2022-11-15T02:57:23;54.30;;;27.35;;
65156;SDS011;52745;49.794;18.258;2022-11-15T03:00:18;62.70;;;27.23;;
65156;SDS011;52745;49.794;18.258;2022-11-15T03:03:27;64.20;;;29.65;;
65156;SDS011;52745;49.794;18.258;2022-11-15T03:06:36;65.88;;;28.13;;
65156;SDS011;52745;49.794;18.258;2022-11-15T03:09:34;59.35;;;28.40;;
65156;SDS011;52745;49.794;18.258;2022-11-15T03:12:25;71.00;;;29.50;;
65156;SDS011;52745;49.794;18.258;2022-11-15T03:18:22;60.83;;;30.52;;
65156;SDS011;52745;49.794;18.258;2022-11-15T03:21:15;64.53;;;30.73;;
65156;SDS011;52745;49.794;18.258;2022-11-15T03:24:03;67.63;;;31.10;;
65156;SDS011;52745;49.794;18.258;2022-11-15T03:26:52;72.80;;;30.60;;
65156;SDS011;52745;49.794;18.258;2022-11-15T03:29:39;61.70;;;30.20;;
65156;SDS011;52745;49.794;18.258;2022-11-15T03:32:44;66.03;;;30.05;;
65156;SDS011;52745;49.794;18.258;2022-11-15T03:35:38;62.75;;;31.27;;
65156;SDS011;52745;49.794;18.258;2022-11-15T03:38:29;69.22;;;31.58;;
65156;SDS011;52745;49.794;18.258;2022-11-15T03:41:24;74.18;;;31.75;;
65156;SDS011;52745;49.794;18.258;2022-11-15T03:44:46;71.70;;;32.65;;
65156;SDS011;52745;49.794;18.258;2022-11-15T03:47:43;64.47;;;31.52;;
65156;SDS011;52745;49.794;18.258;2022-11-15T03:50:33;67.57;;;32.40;;
65156;SDS011;52745;49.794;18.258;2022-11-15T03:53:19;68.65;;;33.38;;
65156;SDS011;52745;49.794;18.258;2022-11-15T03:56:04;70.35;;;32.80;;
65156;SDS011;52745;49.794;18.258;2022-11-15T03:58:49;70.72;;;32.72;;
65156;SDS011;52745;49.794;18.258;2022-11-15T04:01:35;70.88;;;33.38;;
65156;SDS011;52745;49.794;18.258;2022-11-15T04:04:19;69.85;;;32.83;;
65156;SDS011;52745;49.794;18.258;2022-11-15T04:07:04;70.90;;;35.10;;
65156;SDS011;52745;49.794;18.258;2022-11-15T04:09:49;69.78;;;33.30;;
65156;SDS011;52745;49.794;18.258;2022-11-15T04:12:47;66.95;;;32.25;;
65156;SDS011;52745;49.794;18.258;2022-11-15T04:15:32;67.13;;;32.55;;
65156;SDS011;52745;49.794;18.258;2022-11-15T04:18:17;71.25;;;32.38;;
65156;SDS011;52745;49.794;18.258;2022-11-15T04:21:02;63.55;;;31.33;;
65156;SDS011;52745;49.794;18.258;2022-11-15T04:24:07;65.60;;;31.60;;
65156;SDS011;52745;49.794;18.258;2022-11-15T04:26:52;67.25;;;30.60;;
65156;SDS011;52745;49.794;18.258;2022-11-15T04:29:37;66.03;;;30.08;;
65156;SDS011;52745;49.794;18.258;2022-11-15T04:32:22;60.13;;;28.95;;
65156;SDS011;52745;49.794;18.258;2022-11-15T04:35:07;60.70;;;29.17;;
65156;SDS011;52745;49.794;18.258;2022-11-15T04:37:53;60.20;;;28.35;;
65156;SDS011;52745;49.794;18.258;2022-11-15T04:40:39;57.55;;;28.17;;
65156;SDS011;52745;49.794;18.258;2022-11-15T04:43:24;50.15;;;26.45;;
65156;SDS011;52745;49.794;18.258;2022-11-15T04:46:10;53.63;;;26.73;;
65156;SDS011;52745;49.794;18.258;2022-11-15T04:48:55;54.42;;;27.10;;
65156;SDS011;52745;49.794;18.258;2022-11-15T04:51:40;55.90;;;26.73;;
65156;SDS011;52745;49.794;18.258;2022-11-15T04:54:25;58.40;;;27.42;;
65156;SDS011;52745;49.794;18.258;2022-11-15T04:57:10;53.90;;;26.90;;
65156;SDS011;52745;49.794;18.258;2022-11-15T04:59:55;50.78;;;27.25;;
65156;SDS011;52745;49.794;18.258;2022-11-15T05:02:41;50.97;;;25.45;;
65156;SDS011;52745;49.794;18.258;2022-11-15T05:05:44;54.00;;;25.90;;
65156;SDS011;52745;49.794;18.258;2022-11-15T05:08:40;65.95;;;32.90;;
65156;SDS011;52745;49.794;18.258;2022-11-15T05:11:25;53.90;;;27.13;;
65156;SDS011;52745;49.794;18.258;2022-11-15T05:14:11;57.60;;;27.02;;
65156;SDS011;52745;49.794;18.258;2022-11-15T05:16:57;53.90;;;25.55;;
65156;SDS011;52745;49.794;18.258;2022-11-15T05:19:42;52.33;;;26.85;;
65156;SDS011;52745;49.794;18.258;2022-11-15T05:22:27;60.60;;;27.85;;
65156;SDS011;52745;49.794;18.258;2022-11-15T05:25:13;56.30;;;28.13;;
65156;SDS011;52745;49.794;18.258;2022-11-15T05:27:58;57.80;;;28.17;;
65156;SDS011;52745;49.794;18.258;2022-11-15T05:30:43;57.55;;;28.05;;
65156;SDS011;52745;49.794;18.258;2022-11-15T05:33:31;55.90;;;27.10;;
65156;SDS011;52745;49.794;18.258;2022-11-15T05:39:18;65.30;;;30.50;;
65156;SDS011;52745;49.794;18.258;2022-11-15T05:42:07;62.67;;;27.73;;
65156;SDS011;52745;49.794;18.258;2022-11-15T05:44:55;58.50;;;28.30;;
65156;SDS011;52745;49.794;18.258;2022-11-15T05:47:41;58.72;;;28.20;;
65156;SDS011;52745;49.794;18.258;2022-11-15T05:50:28;61.17;;;27.45;;
65156;SDS011;52745;49.794;18.258;2022-11-15T05:53:15;63.63;;;29.17;;
65156;SDS011;52745;49.794;18.258;2022-11-15T05:56:03;59.85;;;27.95;;
65156;SDS011;52745;49.794;18.258;2022-11-15T05:58:51;54.78;;;27.63;;
65156;SDS011;52745;49.794;18.258;2022-11-15T06:01:38;88.57;;;41.75;;
65156;SDS011;52745;49.794;18.258;2022-11-15T06:04:24;64.18;;;31.45;;
65156;SDS011;52745;49.794;18.258;2022-11-15T06:07:09;53.45;;;28.15;;
65156;SDS011;52745;49.794;18.258;2022-11-15T06:09:54;58.05;;;28.70;;
65156;SDS011;52745;49.794;18.258;2022-11-15T06:12:40;59.67;;;28.60;;
65156;SDS011;52745;49.794;18.258;2022-11-15T06:15:25;57.75;;;27.30;;
65156;SDS011;52745;49.794;18.258;2022-11-15T06:18:10;61.78;;;28.85;;
65156;SDS011;52745;49.794;18.258;2022-11-15T06:20:58;59.40;;;29.02;;
65156;SDS011;52745;49.794;18.258;2022-11-15T06:23:44;62.08;;;29.45;;
65156;SDS011;52745;49.794;18.258;2022-11-15T06:26:29;68.13;;;30.27;;
65156;SDS011;52745;49.794;18.258;2022-11-15T06:29:14;66.75;;;30.27;;
65156;SDS011;52745;49.794;18.258;2022-11-15T06:31:59;66.93;;;31.83;;
65156;SDS011;52745;49.794;18.258;2022-11-15T06:34:44;69.03;;;31.95;;
65156;SDS011;52745;49.794;18.258;2022-11-15T06:37:29;72.15;;;35.25;;
65156;SDS011;52745;49.794;18.258;2022-11-15T06:40:14;75.35;;;36.47;;
65156;SDS011;52745;49.794;18.258;2022-11-15T06:43:00;80.85;;;35.90;;
65156;SDS011;52745;49.794;18.258;2022-11-15T06:45:46;73.57;;;34.92;;
65156;SDS011;52745;49.794;18.258;2022-11-15T06:48:34;76.57;;;38.33;;
65156;SDS011;52745;49.794;18.258;2022-11-15T06:51:19;78.68;;;37.38;;
65156;SDS011;52745;49.794;18.258;2022-11-15T06:54:05;79.30;;;36.75;;
65156;SDS011;52745;49.794;18.258;2022-11-15T06:56:50;69.70;;;34.58;;
65156;SDS011;52745;49.794;18.258;2022-11-15T06:59:36;79.30;;;37.25;;
65156;SDS011;52745;49.794;18.258;2022-11-15T07:02:21;77.82;;;36.25;;
65156;SDS011;52745;49.794;18.258;2022-11-15T07:05:06;81.15;;;36.53;;
65156;SDS011;52745;49.794;18.258;2022-11-15T07:07:52;73.35;;;35.22;;
65156;SDS011;52745;49.794;18.258;2022-11-15T07:10:38;82.13;;;35.80;;
65156;SDS011;52745;49.794;18.258;2022-11-15T07:13:26;71.72;;;32.75;;
65156;SDS011;52745;49.794;18.258;2022-11-15T07:16:13;73.55;;;33.45;;
65156;SDS011;52745;49.794;18.258;2022-11-15T07:18:58;72.45;;;33.97;;
65156;SDS011;52745;49.794;18.258;2022-11-15T07:21:43;70.65;;;34.35;;
65156;SDS011;52745;49.794;18.258;2022-11-15T07:24:28;69.88;;;33.63;;
65156;SDS011;52745;49.794;18.258;2022-11-15T07:27:13;75.40;;;33.60;;
65156;SDS011;52745;49.794;18.258;2022-11-15T07:29:59;72.63;;;34.08;;
65156;SDS011;52745;49.794;18.258;2022-11-15T07:32:44;63.60;;;31.63;;
65156;SDS011;52745;49.794;18.258;2022-11-15T07:35:29;60.30;;;30.50;;
65156;SDS011;52745;49.794;18.258;2022-11-15T07:38:15;63.47;;;30.15;;
65156;SDS011;52745;49.794;18.258;2022-11-15T07:41:04;62.92;;;29.77;;
65156;SDS011;52745;49.794;18.258;2022-11-15T07:43:53;60.00;;;28.17;;
65156;SDS011;52745;49.794;18.258;2022-11-15T07:46:38;55.13;;;29.30;;
65156;SDS011;52745;49.794;18.258;2022-11-15T07:49:23;56.22;;;27.63;;
65156;SDS011;52745;49.794;18.258;2022-11-15T07:52:08;49.78;;;25.45;;
65156;SDS011;52745;49.794;18.258;2022-11-15T07:54:53;48.83;;;24.08;;
65156;SDS011;52745;49.794;18.258;2022-11-15T07:57:38;49.95;;;24.05;;
65156;SDS011;52745;49.794;18.258;2022-11-15T08:00:24;49.72;;;23.88;;
65156;SDS011;52745;49.794;18.258;2022-11-15T08:03:10;46.72;;;24.40;;
65156;SDS011;52745;49.794;18.258;2022-11-15T08:05:57;48.10;;;22.20;;
65156;SDS011;52745;49.794;18.258;2022-11-15T08:08:42;43.80;;;21.40;;
65156;SDS011;52745;49.794;18.258;2022-11-15T08:11:28;47.53;;;24.38;;
65156;SDS011;52745;49.794;18.258;2022-11-15T08:14:13;49.75;;;22.08;;
65156;SDS011;52745;49.794;18.258;2022-11-15T08:16:58;48.50;;;22.00;;
65156;SDS011;52745;49.794;18.258;2022-11-15T08:19:43;40.60;;;21.77;;
65156;SDS011;52745;49.794;18.258;2022-11-15T08:22:29;46.00;;;21.15;;
65156;SDS011;52745;49.794;18.258;2022-11-15T08:25:14;37.75;;;21.08;;
65156;SDS011;52745;49.794;18.258;2022-11-15T08:28:01;42.42;;;22.65;;
65156;SDS011;52745;49.794;18.258;2022-11-15T08:30:48;39.17;;;21.13;;
65156;SDS011;52745;49.794;18.258;2022-11-15T08:33:33;38.78;;;20.27;;
65156;SDS011;52745;49.794;18.258;2022-11-15T08:36:19;40.13;;;19.85;;
65156;SDS011;52745;49.794;18.258;2022-11-15T08:39:05;38.05;;;19.50;;
65156;SDS011;52745;49.794;18.258;2022-11-15T08:41:50;34.20;;;18.67;;
65156;SDS011;52745;49.794;18.258;2022-11-15T08:44:35;30.70;;;16.48;;
65156;SDS011;52745;49.794;18.258;2022-11-15T08:47:20;23.75;;;13.38;;
65156;SDS011;52745;49.794;18.258;2022-11-15T08:50:06;25.20;;;15.30;;
65156;SDS011;52745;49.794;18.258;2022-11-15T08:52:52;23.05;;;12.30;;
65156;SDS011;52745;49.794;18.258;2022-11-15T08:55:39;18.17;;;11.15;;
65156;SDS011;52745;49.794;18.258;2022-11-15T08:58:25;17.38;;;10.90;;
65156;SDS011;52745;49.794;18.258;2022-11-15T09:01:17;19.60;;;10.93;;
65156;SDS011;52745;49.794;18.258;2022-11-15T09:04:04;17.23;;;10.65;;
65156;SDS011;52745;49.794;18.258;2022-11-15T09:06:50;17.45;;;10.82;;
65156;SDS011;52745;49.794;18.258;2022-11-15T09:09:35;16.77;;;11.13;;
65156;SDS011;52745;49.794;18.258;2022-11-15T09:12:20;19.20;;;11.95;;
65156;SDS011;52745;49.794;18.258;2022-11-15T09:15:08;21.17;;;11.52;;
65156;SDS011;52745;49.794;18.258;2022-11-15T09:17:53;19.77;;;11.13;;
65156;SDS011;52745;49.794;18.258;2022-11-15T09:20:38;18.33;;;11.88;;
65156;SDS011;52745;49.794;18.258;2022-11-15T09:23:24;21.65;;;11.93;;
65156;SDS011;52745;49.794;18.258;2022-11-15T09:26:10;22.48;;;13.18;;
65156;SDS011;52745;49.794;18.258;2022-11-15T09:28:55;18.33;;;12.07;;
65156;SDS011;52745;49.794;18.258;2022-11-15T09:31:40;20.10;;;11.80;;
65156;SDS011;52745;49.794;18.258;2022-11-15T09:34:26;21.58;;;12.10;;
65156;SDS011;52745;49.794;18.258;2022-11-15T09:37:10;20.27;;;11.75;;
65156;SDS011;52745;49.794;18.258;2022-11-15T09:39:57;18.60;;;11.65;;
65156;SDS011;52745;49.794;18.258;2022-11-15T09:43:05;19.83;;;12.20;;
65156;SDS011;52745;49.794;18.258;2022-11-15T09:49:06;22.05;;;11.50;;
65156;SDS011;52745;49.794;18.258;2022-11-15T09:51:55;22.63;;;12.25;;
65156;SDS011;52745;49.794;18.258;2022-11-15T09:54:25;17.50;;;11.35;;
65156;SDS011;52745;49.794;18.258;2022-11-15T09:56:56;22.38;;;12.35;;
65156;SDS011;52745;49.794;18.258;2022-11-15T10:05:03;16.80;;;11.05;;
65156;SDS011;52745;49.794;18.258;2022-11-15T10:10:32;30.13;;;17.17;;
65156;SDS011;52745;49.794;18.258;2022-11-15T10:13:04;16.85;;;11.00;;
65156;SDS011;52745;49.794;18.258;2022-11-15T10:15:40;18.95;;;11.45;;
65156;SDS011;52745;49.794;18.258;2022-11-15T10:18:15;16.95;;;11.20;;
65156;SDS011;52745;49.794;18.258;2022-11-15T10:20:56;19.63;;;10.98;;
65156;SDS011;52745;49.794;18.258;2022-11-15T10:23:26;16.20;;;10.93;;
65156;SDS011;52745;49.794;18.258;2022-11-15T10:25:54;16.42;;;11.07;;
65156;SDS011;52745;49.794;18.258;2022-11-15T10:28:27;22.55;;;11.27;;
65156;SDS011;52745;49.794;18.258;2022-11-15T10:30:56;20.25;;;10.98;;
65156;SDS011;52745;49.794;18.258;2022-11-15T10:33:35;19.50;;;12.15;;
65156;SDS011;52745;49.794;18.258;2022-11-15T10:41:14;17.80;;;10.88;;
65156;SDS011;52745;49.794;18.258;2022-11-15T10:46:33;19.50;;;11.98;;
65156;SDS011;52745;49.794;18.258;2022-11-15T10:49:11;25.38;;;13.18;;
65156;SDS011;52745;49.794;18.258;2022-11-15T10:57:13;22.23;;;12.55;;
65156;SDS011;52745;49.794;18.258;2022-11-15T10:59:46;18.90;;;11.77;;
65156;SDS011;52745;49.794;18.258;2022-11-15T11:02:35;21.08;;;12.20;;
65156;SDS011;52745;49.794;18.258;2022-11-15T11:05:04;22.88;;;12.75;;
65156;SDS011;52745;49.794;18.258;2022-11-15T11:07:34;20.27;;;13.02;;
65156;SDS011;52745;49.794;18.258;2022-11-15T11:12:45;24.02;;;13.05;;
65156;SDS011;52745;49.794;18.258;2022-11-15T11:15:13;21.55;;;12.63;;
65156;SDS011;52745;49.794;18.258;2022-11-15T11:20:37;25.77;;;14.40;;
65156;SDS011;52745;49.794;18.258;2022-11-15T11:26:21;21.50;;;12.07;;
65156;SDS011;52745;49.794;18.258;2022-11-15T11:31:53;21.83;;;13.02;;
65156;SDS011;52745;49.794;18.258;2022-11-15T11:39:46;22.30;;;12.38;;
65156;SDS011;52745;49.794;18.258;2022-11-15T11:47:51;24.58;;;13.25;;
65156;SDS011;52745;49.794;18.258;2022-11-15T11:50:21;24.27;;;12.88;;
65156;SDS011;52745;49.794;18.258;2022-11-15T11:55:22;21.33;;;12.70;;
65156;SDS011;52745;49.794;18.258;2022-11-15T12:00:41;22.85;;;13.35;;
65156;SDS011;52745;49.794;18.258;2022-11-15T12:03:19;24.88;;;13.55;;
65156;SDS011;52745;49.794;18.258;2022-11-15T12:05:51;23.38;;;12.98;;
65156;SDS011;52745;49.794;18.258;2022-11-15T12:08:45;24.33;;;13.30;;
65156;SDS011;52745;49.794;18.258;2022-11-15T12:11:28;26.50;;;14.05;;
65156;SDS011;52745;49.794;18.258;2022-11-15T12:14:03;26.42;;;14.43;;
65156;SDS011;52745;49.794;18.258;2022-11-15T12:16:32;24.38;;;13.38;;
65156;SDS011;52745;49.794;18.258;2022-11-15T12:19:00;24.40;;;13.45;;
65156;SDS011;52745;49.794;18.258;2022-11-15T12:27:20;22.90;;;13.18;;
65156;SDS011;52745;49.794;18.258;2022-11-15T12:30:02;26.45;;;13.38;;
65156;SDS011;52745;49.794;18.258;2022-11-15T12:32:35;24.90;;;13.75;;
65156;SDS011;52745;49.794;18.258;2022-11-15T12:35:05;24.70;;;13.90;;
65156;SDS011;52745;49.794;18.258;2022-11-15T12:37:50;22.92;;;13.75;;
65156;SDS011;52745;49.794;18.258;2022-11-15T12:40:22;23.88;;;13.43;;
65156;SDS011;52745;49.794;18.258;2022-11-15T12:45:29;24.55;;;14.50;;
65156;SDS011;52745;49.794;18.258;2022-11-15T12:48:21;34.17;;;18.55;;
65156;SDS011;52745;49.794;18.258;2022-11-15T12:53:28;26.50;;;14.57;;
65156;SDS011;52745;49.794;18.258;2022-11-15T13:06:51;24.55;;;13.68;;
65156;SDS011;52745;49.794;18.258;2022-11-15T13:14:39;24.25;;;13.48;;
65156;SDS011;52745;49.794;18.258;2022-11-15T13:22:40;23.35;;;12.80;;
65156;SDS011;52745;49.794;18.258;2022-11-15T13:27:59;26.67;;;13.43;;
65156;SDS011;52745;49.794;18.258;2022-11-15T13:30:27;25.77;;;13.93;;
65156;SDS011;52745;49.794;18.258;2022-11-15T13:32:58;28.85;;;14.18;;
65156;SDS011;52745;49.794;18.258;2022-11-15T13:35:33;23.83;;;13.80;;
65156;SDS011;52745;49.794;18.258;2022-11-15T13:38:11;25.85;;;12.95;;
65156;SDS011;52745;49.794;18.258;2022-11-15T13:40:50;23.40;;;12.90;;
65156;SDS011;52745;49.794;18.258;2022-11-15T13:43:32;23.75;;;13.73;;
65156;SDS011;52745;49.794;18.258;2022-11-15T13:46:05;24.17;;;13.52;;
65156;SDS011;52745;49.794;18.258;2022-11-15T13:48:31;25.30;;;13.43;;
65156;SDS011;52745;49.794;18.258;2022-11-15T13:51:00;23.30;;;13.68;;
65156;SDS011;52745;49.794;18.258;2022-11-15T13:53:30;24.55;;;13.23;;
65156;SDS011;52745;49.794;18.258;2022-11-15T13:55:59;24.50;;;13.63;;
65156;SDS011;52745;49.794;18.258;2022-11-15T13:58:26;24.05;;;12.98;;
65156;SDS011;52745;49.794;18.258;2022-11-15T14:01:00;22.92;;;13.57;;
65156;SDS011;52745;49.794;18.258;2022-11-15T14:03:33;22.55;;;13.07;;
65156;SDS011;52745;49.794;18.258;2022-11-15T14:08:39;24.52;;;13.18;;
65156;SDS011;52745;49.794;18.258;2022-11-15T14:11:12;24.23;;;13.05;;
65156;SDS011;52745;49.794;18.258;2022-11-15T14:13:50;23.70;;;12.52;;
65156;SDS011;52745;49.794;18.258;2022-11-15T14:16:46;20.98;;;12.27;;
65156;SDS011;52745;49.794;18.258;2022-11-15T14:24:36;24.08;;;12.70;;
65156;SDS011;52745;49.794;18.258;2022-11-15T14:29:53;26.60;;;13.32;;
65156;SDS011;52745;49.794;18.258;2022-11-15T14:32:21;22.10;;;12.65;;
65156;SDS011;52745;49.794;18.258;2022-11-15T14:34:59;23.00;;;12.77;;
65156;SDS011;52745;49.794;18.258;2022-11-15T14:37:28;23.27;;;12.90;;
65156;SDS011;52745;49.794;18.258;2022-11-15T14:42:31;23.10;;;12.93;;
65156;SDS011;52745;49.794;18.258;2022-11-15T14:44:58;25.90;;;12.65;;
65156;SDS011;52745;49.794;18.258;2022-11-15T14:47:24;23.98;;;13.65;;
65156;SDS011;52745;49.794;18.258;2022-11-15T14:49:51;24.75;;;12.60;;
65156;SDS011;52745;49.794;18.258;2022-11-15T14:52:24;22.83;;;13.18;;
65156;SDS011;52745;49.794;18.258;2022-11-15T14:54:54;27.00;;;13.13;;
65156;SDS011;52745;49.794;18.258;2022-11-15T14:57:21;26.33;;;12.68;;
65156;SDS011;52745;49.794;18.258;2022-11-15T14:59:49;22.33;;;12.25;;
65156;SDS011;52745;49.794;18.258;2022-11-15T15:02:17;25.88;;;13.45;;
65156;SDS011;52745;49.794;18.258;2022-11-15T15:04:51;25.08;;;13.43;;
65156;SDS011;52745;49.794;18.258;2022-11-15T15:07:18;24.08;;;12.85;;
65156;SDS011;52745;49.794;18.258;2022-11-15T15:09:46;23.27;;;12.43;;
65156;SDS011;52745;49.794;18.258;2022-11-15T15:17:13;21.40;;;12.82;;
65156;SDS011;52745;49.794;18.258;2022-11-15T15:19:41;19.40;;;12.45;;
65156;SDS011;52745;49.794;18.258;2022-11-15T15:22:10;20.73;;;12.32;;
65156;SDS011;52745;49.794;18.258;2022-11-15T15:24:42;21.70;;;12.25;;
65156;SDS011;52745;49.794;18.258;2022-11-15T15:27:09;24.73;;;13.82;;
65156;SDS011;52745;49.794;18.258;2022-11-15T15:29:36;24.38;;;13.50;;
65156;SDS011;52745;49.794;18.258;2022-11-15T15:32:03;23.15;;;13.35;;
65156;SDS011;52745;49.794;18.258;2022-11-15T15:34:30;25.10;;;14.75;;
65156;SDS011;52745;49.794;18.258;2022-11-15T15:39:51;31.58;;;15.00;;
65156;SDS011;52745;49.794;18.258;2022-11-15T15:42:19;24.45;;;13.85;;
65156;SDS011;52745;49.794;18.258;2022-11-15T15:44:47;25.83;;;13.98;;
65156;SDS011;52745;49.794;18.258;2022-11-15T15:49:48;25.67;;;13.95;;
65156;SDS011;52745;49.794;18.258;2022-11-15T15:52:15;49.55;;;26.85;;
65156;SDS011;52745;49.794;18.258;2022-11-15T15:54:43;30.23;;;17.23;;
65156;SDS011;52745;49.794;18.258;2022-11-15T15:57:11;27.65;;;16.02;;
65156;SDS011;52745;49.794;18.258;2022-11-15T15:59:40;24.83;;;14.23;;
65156;SDS011;52745;49.794;18.258;2022-11-15T16:02:09;27.27;;;14.55;;
65156;SDS011;52745;49.794;18.258;2022-11-15T16:04:39;24.17;;;13.82;;
65156;SDS011;52745;49.794;18.258;2022-11-15T16:07:05;25.70;;;13.88;;
65156;SDS011;52745;49.794;18.258;2022-11-15T16:09:32;30.15;;;15.52;;
65156;SDS011;52745;49.794;18.258;2022-11-15T16:12:17;26.15;;;14.90;;
65156;SDS011;52745;49.794;18.258;2022-11-15T16:14:43;30.85;;;14.75;;
65156;SDS011;52745;49.794;18.258;2022-11-15T16:17:23;27.83;;;15.48;;
65156;SDS011;52745;49.794;18.258;2022-11-15T16:19:52;26.75;;;14.40;;
65156;SDS011;52745;49.794;18.258;2022-11-15T16:22:18;26.42;;;15.25;;
65156;SDS011;52745;49.794;18.258;2022-11-15T16:24:45;25.58;;;14.30;;
65156;SDS011;52745;49.794;18.258;2022-11-15T16:27:13;27.63;;;14.15;;
65156;SDS011;52745;49.794;18.258;2022-11-15T16:29:44;28.20;;;15.38;;
65156;SDS011;52745;49.794;18.258;2022-11-15T16:32:12;24.65;;;14.07;;
65156;SDS011;52745;49.794;18.258;2022-11-15T16:34:39;26.90;;;14.50;;
65156;SDS011;52745;49.794;18.258;2022-11-15T16:37:08;27.15;;;14.73;;
65156;SDS011;52745;49.794;18.258;2022-11-15T16:39:47;31.80;;;15.20;;
65156;SDS011;52745;49.794;18.258;2022-11-15T16:42:14;24.55;;;14.43;;
65156;SDS011;52745;49.794;18.258;2022-11-15T16:44:41;24.95;;;14.75;;
65156;SDS011;52745;49.794;18.258;2022-11-15T16:47:17;28.45;;;16.00;;
65156;SDS011;52745;49.794;18.258;2022-11-15T16:49:45;28.33;;;15.07;;
65156;SDS011;52745;49.794;18.258;2022-11-15T16:52:12;31.40;;;16.75;;
65156;SDS011;52745;49.794;18.258;2022-11-15T16:54:41;30.95;;;15.88;;
65156;SDS011;52745;49.794;18.258;2022-11-15T16:57:08;30.33;;;16.17;;
65156;SDS011;52745;49.794;18.258;2022-11-15T16:59:36;28.83;;;16.30;;
65156;SDS011;52745;49.794;18.258;2022-11-15T17:02:02;29.30;;;16.38;;
65156;SDS011;52745;49.794;18.258;2022-11-15T17:04:29;34.55;;;17.13;;
65156;SDS011;52745;49.794;18.258;2022-11-15T17:06:58;32.15;;;16.77;;
65156;SDS011;52745;49.794;18.258;2022-11-15T17:09:25;31.35;;;16.35;;
65156;SDS011;52745;49.794;18.258;2022-11-15T17:11:52;33.83;;;17.33;;
65156;SDS011;52745;49.794;18.258;2022-11-15T17:14:19;30.63;;;16.20;;
65156;SDS011;52745;49.794;18.258;2022-11-15T17:16:45;35.35;;;17.08;;
65156;SDS011;52745;49.794;18.258;2022-11-15T17:19:12;33.50;;;17.08;;
65156;SDS011;52745;49.794;18.258;2022-11-15T17:21:41;34.03;;;17.80;;
65156;SDS011;52745;49.794;18.258;2022-11-15T17:24:08;33.08;;;18.13;;
65156;SDS011;52745;49.794;18.258;2022-11-15T17:26:36;34.65;;;19.20;;
65156;SDS011;52745;49.794;18.258;2022-11-15T17:29:03;36.78;;;20.40;;
65156;SDS011;52745;49.794;18.258;2022-11-15T17:31:36;36.55;;;19.98;;
65156;SDS011;52745;49.794;18.258;2022-11-15T17:34:03;37.92;;;20.25;;
65156;SDS011;52745;49.794;18.258;2022-11-15T17:36:31;43.45;;;20.95;;
65156;SDS011;52745;49.794;18.258;2022-11-15T17:38:58;38.85;;;19.90;;
65156;SDS011;52745;49.794;18.258;2022-11-15T17:41:25;52.45;;;27.15;;